sensor_id;sensor_type;location;lat;lon;timestamp;pressure;altitude;pressure_sealevel;temperature;humidity
48872;BME280;36154;51.674;7.824;2022-10-18T00:02:29;101776.88;;;22.30;55.99
48872;BME280;36154;51.674;7.824;2022-10-18T00:05:05;101769.09;;;22.30;56.13
48872;BME280;36154;51.674;7.824;2022-10-18T00:07:37;101774.28;;;22.30;56.13
48872;BME280;36154;51.674;7.824;2022-10-18T00:10:04;101773.44;;;22.29;56.08
48872;BME280;36154;51.674;7.824;2022-10-18T00:12:34;101773.44;;;22.29;56.08
48872;BME280;36154;51.674;7.824;2022-10-18T00:15:06;101770.84;;;22.29;56.19
48872;BME280;36154;51.674;7.824;2022-10-18T00:17:43;101761.34;;;22.28;56.07
48872;BME280;36154;51.674;7.824;2022-10-18T00:20:20;101757.00;;;22.29;56.12
48872;BME280;36154;51.674;7.824;2022-10-18T00:22:49;101761.34;;;22.28;55.99
48872;BME280;36154;51.674;7.824;2022-10-18T00:25:31;101763.06;;;22.29;56.00
48872;BME280;36154;51.674;7.824;2022-10-18T00:28:12;101758.75;;;22.28;56.08
48872;BME280;36154;51.674;7.824;2022-10-18T00:30:41;101761.34;;;22.28;56.14
48872;BME280;36154;51.674;7.824;2022-10-18T00:33:12;101766.53;;;22.28;56.17
48872;BME280;36154;51.674;7.824;2022-10-18T00:36:02;101766.53;;;22.28;56.09
48872;BME280;36154;51.674;7.824;2022-10-18T00:38:39;101767.38;;;22.27;56.03
48872;BME280;36154;51.674;7.824;2022-10-18T00:41:38;101773.44;;;22.26;56.07
48872;BME280;36154;51.674;7.824;2022-10-18T00:47:07;101767.38;;;22.27;56.06
48872;BME280;36154;51.674;7.824;2022-10-18T00:50:07;101768.25;;;22.26;56.21
48872;BME280;36154;51.674;7.824;2022-10-18T00:53:00;101757.03;;;22.26;56.12
48872;BME280;36154;51.674;7.824;2022-10-18T00:55:33;101763.06;;;22.26;56.08
48872;BME280;36154;51.674;7.824;2022-10-18T00:58:06;101761.34;;;22.25;56.27
48872;BME280;36154;51.674;7.824;2022-10-18T01:00:56;101751.84;;;22.26;56.21
48872;BME280;36154;51.674;7.824;2022-10-18T01:03:42;101751.84;;;22.26;56.26
48872;BME280;36154;51.674;7.824;2022-10-18T01:06:12;101750.97;;;22.27;56.05
48872;BME280;36154;51.674;7.824;2022-10-18T01:15:04;101743.19;;;22.25;56.12
48872;BME280;36154;51.674;7.824;2022-10-18T01:21:10;101731.13;;;22.24;56.22
48872;BME280;36154;51.674;7.824;2022-10-18T01:32:51;101726.81;;;22.23;56.22
48872;BME280;36154;51.674;7.824;2022-10-18T01:35:25;101728.56;;;22.24;56.24
48872;BME280;36154;51.674;7.824;2022-10-18T01:38:04;101732.00;;;22.24;56.10
48872;BME280;36154;51.674;7.824;2022-10-18T01:41:34;101731.13;;;22.24;56.24
48872;BME280;36154;51.674;7.824;2022-10-18T01:43:49;101721.63;;;22.23;56.10
48872;BME280;36154;51.674;7.824;2022-10-18T01:46:28;101732.84;;;22.23;56.18
48872;BME280;36154;51.674;7.824;2022-10-18T01:49:01;101730.25;;;22.23;56.20
48872;BME280;36154;51.674;7.824;2022-10-18T01:51:38;101729.41;;;22.24;56.24
48872;BME280;36154;51.674;7.824;2022-10-18T01:54:47;101735.47;;;22.22;56.22
48872;BME280;36154;51.674;7.824;2022-10-18T01:57:59;101732.00;;;22.23;56.07
48872;BME280;36154;51.674;7.824;2022-10-18T02:03:24;101725.16;;;22.19;56.20
48872;BME280;36154;51.674;7.824;2022-10-18T02:09:16;101721.63;;;22.23;56.22
48872;BME280;36154;51.674;7.824;2022-10-18T02:11:47;101717.31;;;22.23;56.16
48872;BME280;36154;51.674;7.824;2022-10-18T02:14:28;101713.84;;;22.24;56.16
48872;BME280;36154;51.674;7.824;2022-10-18T02:20:03;101718.22;;;22.21;56.06
48872;BME280;36154;51.674;7.824;2022-10-18T02:22:41;101716.50;;;22.20;56.19
48872;BME280;36154;51.674;7.824;2022-10-18T02:25:20;101712.16;;;22.20;56.20
48872;BME280;36154;51.674;7.824;2022-10-18T02:27:51;101717.34;;;22.20;56.01
48872;BME280;36154;51.674;7.824;2022-10-18T02:30:29;101720.78;;;22.22;56.15
48872;BME280;36154;51.674;7.824;2022-10-18T02:33:16;101725.09;;;22.22;56.22
48872;BME280;36154;51.674;7.824;2022-10-18T02:35:51;101718.19;;;22.24;56.17
48872;BME280;36154;51.674;7.824;2022-10-18T02:38:22;101717.31;;;22.23;56.26
48872;BME280;36154;51.674;7.824;2022-10-18T02:40:49;101713.00;;;22.24;56.03
48872;BME280;36154;51.674;7.824;2022-10-18T02:43:14;101706.09;;;22.23;56.22
48872;BME280;36154;51.674;7.824;2022-10-18T02:45:39;101707.81;;;22.24;56.17
48872;BME280;36154;51.674;7.824;2022-10-18T02:48:05;101712.09;;;22.25;55.95
48872;BME280;36154;51.674;7.824;2022-10-18T02:50:30;101716.41;;;22.26;56.08
48872;BME280;36154;51.674;7.824;2022-10-18T02:52:56;101720.75;;;22.26;56.23
48872;BME280;36154;51.674;7.824;2022-10-18T02:55:21;101717.28;;;22.25;56.01
48872;BME280;36154;51.674;7.824;2022-10-18T02:57:46;101713.00;;;22.24;56.04
48872;BME280;36154;51.674;7.824;2022-10-18T03:00:12;101715.56;;;22.26;56.23
48872;BME280;36154;51.674;7.824;2022-10-18T03:02:37;101719.88;;;22.25;56.16
48872;BME280;36154;51.674;7.824;2022-10-18T03:05:03;101719.00;;;22.26;56.05
48872;BME280;36154;51.674;7.824;2022-10-18T03:07:28;101723.34;;;22.26;56.05
48872;BME280;36154;51.674;7.824;2022-10-18T03:09:53;101721.59;;;22.26;56.07
48872;BME280;36154;51.674;7.824;2022-10-18T03:12:19;101717.25;;;22.27;56.02
48872;BME280;36154;51.674;7.824;2022-10-18T03:14:44;101721.59;;;22.26;55.94
48872;BME280;36154;51.674;7.824;2022-10-18T03:17:09;101719.88;;;22.25;56.09
48872;BME280;36154;51.674;7.824;2022-10-18T03:19:34;101712.97;;;22.26;55.96
48872;BME280;36154;51.674;7.824;2022-10-18T03:22:00;101718.16;;;22.26;56.12
48872;BME280;36154;51.674;7.824;2022-10-18T03:24:25;101709.50;;;22.25;56.03
48872;BME280;36154;51.674;7.824;2022-10-18T03:26:50;101717.28;;;22.25;56.04
48872;BME280;36154;51.674;7.824;2022-10-18T03:29:15;101720.75;;;22.26;56.16
48872;BME280;36154;51.674;7.824;2022-10-18T03:31:41;101719.88;;;22.25;56.11
48872;BME280;36154;51.674;7.824;2022-10-18T03:34:06;101721.59;;;22.26;55.93
48872;BME280;36154;51.674;7.824;2022-10-18T03:36:31;101712.97;;;22.26;55.82
48872;BME280;36154;51.674;7.824;2022-10-18T03:38:58;101723.28;;;22.27;56.15
48872;BME280;36154;51.674;7.824;2022-10-18T03:41:23;101711.22;;;22.26;56.10
48872;BME280;36154;51.674;7.824;2022-10-18T03:43:48;101711.22;;;22.26;56.04
48872;BME280;36154;51.674;7.824;2022-10-18T03:46:14;101708.66;;;22.24;56.12
48872;BME280;36154;51.674;7.824;2022-10-18T03:48:39;101711.22;;;22.26;56.22
48872;BME280;36154;51.674;7.824;2022-10-18T03:51:04;101709.50;;;22.25;56.00
48872;BME280;36154;51.674;7.824;2022-10-18T03:53:29;101712.09;;;22.27;56.12
48872;BME280;36154;51.674;7.824;2022-10-18T03:55:55;101716.41;;;22.26;56.07
48872;BME280;36154;51.674;7.824;2022-10-18T03:58:21;101705.19;;;22.26;56.12
48872;BME280;36154;51.674;7.824;2022-10-18T04:00:50;101705.19;;;22.26;56.15
48872;BME280;36154;51.674;7.824;2022-10-18T04:03:17;101707.78;;;22.26;56.08
48872;BME280;36154;51.674;7.824;2022-10-18T04:05:43;101719.03;;;22.24;56.04
48872;BME280;36154;51.674;7.824;2022-10-18T04:08:09;101715.56;;;22.26;56.03
48872;BME280;36154;51.674;7.824;2022-10-18T04:10:36;101715.56;;;22.26;56.04
48872;BME280;36154;51.674;7.824;2022-10-18T04:13:01;101721.59;;;22.26;56.38
48872;BME280;36154;51.674;7.824;2022-10-18T04:15:27;101712.09;;;22.25;56.00
48872;BME280;36154;51.674;7.824;2022-10-18T04:17:52;101716.41;;;22.26;55.94
48872;BME280;36154;51.674;7.824;2022-10-18T04:20:17;101723.28;;;22.27;55.85
48872;BME280;36154;51.674;7.824;2022-10-18T04:22:42;101721.59;;;22.26;56.14
48872;BME280;36154;51.674;7.824;2022-10-18T04:25:08;101720.75;;;22.26;56.04
48872;BME280;36154;51.674;7.824;2022-10-18T04:27:34;101719.00;;;22.26;55.96
48872;BME280;36154;51.674;7.824;2022-10-18T04:29:59;101718.13;;;22.27;56.06
48872;BME280;36154;51.674;7.824;2022-10-18T04:32:24;101718.13;;;22.27;55.92
48872;BME280;36154;51.674;7.824;2022-10-18T04:34:52;101721.59;;;22.26;55.99
48872;BME280;36154;51.674;7.824;2022-10-18T04:37:17;101718.19;;;22.24;56.19
48872;BME280;36154;51.674;7.824;2022-10-18T04:39:43;101717.28;;;22.25;55.86
48872;BME280;36154;51.674;7.824;2022-10-18T04:42:12;101726.78;;;22.26;55.78
48872;BME280;36154;51.674;7.824;2022-10-18T04:44:37;101721.59;;;22.26;56.02
48872;BME280;36154;51.674;7.824;2022-10-18T04:47:03;101714.66;;;22.27;56.39
48872;BME280;36154;51.674;7.824;2022-10-18T04:49:28;101715.56;;;22.26;55.88
48872;BME280;36154;51.674;7.824;2022-10-18T04:51:53;101717.28;;;22.25;55.94
48872;BME280;36154;51.674;7.824;2022-10-18T04:54:18;101713.84;;;22.24;56.04
48872;BME280;36154;51.674;7.824;2022-10-18T04:56:44;101723.34;;;22.26;55.99
48872;BME280;36154;51.674;7.824;2022-10-18T04:59:09;101720.75;;;22.26;55.95
48872;BME280;36154;51.674;7.824;2022-10-18T05:01:34;101719.03;;;22.24;56.03
48872;BME280;36154;51.674;7.824;2022-10-18T05:03:59;101726.78;;;22.26;56.02
48872;BME280;36154;51.674;7.824;2022-10-18T05:06:25;101718.19;;;22.24;56.03
48872;BME280;36154;51.674;7.824;2022-10-18T05:08:50;101722.47;;;22.25;55.90
48872;BME280;36154;51.674;7.824;2022-10-18T05:11:15;101730.25;;;22.25;56.27
48872;BME280;36154;51.674;7.824;2022-10-18T05:13:41;101729.41;;;22.24;55.83
48872;BME280;36154;51.674;7.824;2022-10-18T05:16:06;101724.22;;;22.24;56.04
48872;BME280;36154;51.674;7.824;2022-10-18T05:18:31;101716.44;;;22.24;56.05
48872;BME280;36154;51.674;7.824;2022-10-18T05:20:57;101717.31;;;22.23;55.94
48872;BME280;36154;51.674;7.824;2022-10-18T05:23:22;101715.59;;;22.24;55.97
48872;BME280;36154;51.674;7.824;2022-10-18T05:25:47;101714.72;;;22.22;55.97
48872;BME280;36154;51.674;7.824;2022-10-18T05:28:13;101722.47;;;22.25;56.03
48872;BME280;36154;51.674;7.824;2022-10-18T05:30:39;101718.19;;;22.24;55.99
48872;BME280;36154;51.674;7.824;2022-10-18T05:33:07;101721.63;;;22.24;55.94
48872;BME280;36154;51.674;7.824;2022-10-18T05:35:32;101725.06;;;22.25;55.90
48872;BME280;36154;51.674;7.824;2022-10-18T05:38:01;101719.88;;;22.25;56.05
48872;BME280;36154;51.674;7.824;2022-10-18T05:40:27;101713.84;;;22.24;55.82
48872;BME280;36154;51.674;7.824;2022-10-18T05:42:52;101720.75;;;22.26;55.97
48872;BME280;36154;51.674;7.824;2022-10-18T05:45:17;101727.66;;;22.23;56.04
48872;BME280;36154;51.674;7.824;2022-10-18T05:47:43;101728.56;;;22.24;56.06
48872;BME280;36154;51.674;7.824;2022-10-18T05:50:08;101726.81;;;22.24;55.96
48872;BME280;36154;51.674;7.824;2022-10-18T05:52:34;101715.59;;;22.24;56.10
48872;BME280;36154;51.674;7.824;2022-10-18T05:54:59;101715.59;;;22.24;55.90
48872;BME280;36154;51.674;7.824;2022-10-18T05:57:24;101719.03;;;22.24;55.84
48872;BME280;36154;51.674;7.824;2022-10-18T05:59:49;101727.66;;;22.25;56.03
48872;BME280;36154;51.674;7.824;2022-10-18T06:02:15;101725.06;;;22.25;56.18
48872;BME280;36154;51.674;7.824;2022-10-18T06:04:40;101733.72;;;22.24;56.00
48872;BME280;36154;51.674;7.824;2022-10-18T06:07:09;101732.84;;;22.23;56.03
48872;BME280;36154;51.674;7.824;2022-10-18T06:09:36;101725.13;;;22.20;55.78
48872;BME280;36154;51.674;7.824;2022-10-18T06:12:01;101725.97;;;22.24;55.88
48872;BME280;36154;51.674;7.824;2022-10-18T06:14:27;101725.94;;;22.26;55.88
48872;BME280;36154;51.674;7.824;2022-10-18T06:16:52;101725.06;;;22.25;55.89
48872;BME280;36154;51.674;7.824;2022-10-18T06:19:17;101738.03;;;22.25;55.79
48872;BME280;36154;51.674;7.824;2022-10-18T06:21:45;101741.50;;;22.26;55.75
48872;BME280;36154;51.674;7.824;2022-10-18T06:24:10;101742.34;;;22.26;55.79
48872;BME280;36154;51.674;7.824;2022-10-18T06:26:35;101744.03;;;22.27;55.88
48872;BME280;36154;51.674;7.824;2022-10-18T06:29:01;101742.34;;;22.26;56.05
48872;BME280;36154;51.674;7.824;2022-10-18T06:31:26;101742.34;;;22.26;56.14
48872;BME280;36154;51.674;7.824;2022-10-18T06:33:51;101749.22;;;22.27;56.18
48872;BME280;36154;51.674;7.824;2022-10-18T06:36:19;101745.78;;;22.28;55.92
48872;BME280;36154;51.674;7.824;2022-10-18T06:38:46;101757.88;;;22.29;56.06
48872;BME280;36154;51.674;7.824;2022-10-18T06:41:12;101753.56;;;22.28;56.06
48872;BME280;36154;51.674;7.824;2022-10-18T06:43:37;101761.31;;;22.31;56.22
48872;BME280;36154;51.674;7.824;2022-10-18T06:46:04;101763.88;;;22.33;56.04
48872;BME280;36154;51.674;7.824;2022-10-18T06:48:31;101769.06;;;22.33;56.21
48872;BME280;36154;51.674;7.824;2022-10-18T06:50:58;101763.03;;;22.32;56.21
48872;BME280;36154;51.674;7.824;2022-10-18T06:53:26;101760.44;;;22.32;56.28
48872;BME280;36154;51.674;7.824;2022-10-18T06:55:52;101763.03;;;22.32;56.26
48872;BME280;36154;51.674;7.824;2022-10-18T06:58:22;101775.09;;;22.33;56.27
48872;BME280;36154;51.674;7.824;2022-10-18T07:00:47;101780.28;;;22.33;56.43
48872;BME280;36154;51.674;7.824;2022-10-18T07:03:13;101785.47;;;22.33;56.31
48872;BME280;36154;51.674;7.824;2022-10-18T07:05:38;101798.44;;;22.33;56.13
48872;BME280;36154;51.674;7.824;2022-10-18T07:08:04;101790.66;;;22.33;56.42
48872;BME280;36154;51.674;7.824;2022-10-18T07:10:29;101785.47;;;22.33;56.28
48872;BME280;36154;51.674;7.824;2022-10-18T07:12:54;101784.59;;;22.34;56.24
48872;BME280;36154;51.674;7.824;2022-10-18T07:15:20;101786.31;;;22.34;56.31
48872;BME280;36154;51.674;7.824;2022-10-18T07:17:48;101801.03;;;22.33;56.24
48872;BME280;36154;51.674;7.824;2022-10-18T07:20:13;101801.03;;;22.33;56.24
48872;BME280;36154;51.674;7.824;2022-10-18T07:22:38;101802.75;;;22.34;56.16
48872;BME280;36154;51.674;7.824;2022-10-18T07:25:07;101793.25;;;22.33;56.25
48872;BME280;36154;51.674;7.824;2022-10-18T07:27:37;101805.34;;;22.33;56.32
48872;BME280;36154;51.674;7.824;2022-10-18T07:30:07;101798.41;;;22.35;56.34
48872;BME280;36154;51.674;7.824;2022-10-18T07:32:33;101802.75;;;22.34;56.21
48872;BME280;36154;51.674;7.824;2022-10-18T07:34:58;101812.22;;;22.35;56.35
48872;BME280;36154;51.674;7.824;2022-10-18T07:37:23;101816.56;;;22.35;56.11
48872;BME280;36154;51.674;7.824;2022-10-18T07:39:49;101814.00;;;22.32;56.27
48872;BME280;36154;51.674;7.824;2022-10-18T07:42:14;101832.09;;;22.36;56.25
48872;BME280;36154;51.674;7.824;2022-10-18T07:44:39;101823.47;;;22.36;56.19
48872;BME280;36154;51.674;7.824;2022-10-18T07:47:05;101817.41;;;22.35;56.34
48872;BME280;36154;51.674;7.824;2022-10-18T07:49:30;101822.56;;;22.37;56.25
48872;BME280;36154;51.674;7.824;2022-10-18T07:51:55;101823.47;;;22.36;56.24
48872;BME280;36154;51.674;7.824;2022-10-18T07:54:21;101838.13;;;22.37;56.25
48872;BME280;36154;51.674;7.824;2022-10-18T07:56:46;101825.19;;;22.35;56.18
48872;BME280;36154;51.674;7.824;2022-10-18T07:59:12;101826.03;;;22.37;56.06
48872;BME280;36154;51.674;7.824;2022-10-18T08:01:37;101826.91;;;22.36;56.04
48872;BME280;36154;51.674;7.824;2022-10-18T08:04:02;101830.34;;;22.38;56.21
48872;BME280;36154;51.674;7.824;2022-10-18T08:06:28;101837.28;;;22.36;56.01
48872;BME280;36154;51.674;7.824;2022-10-18T08:08:53;101835.56;;;22.35;55.97
48872;BME280;36154;51.674;7.824;2022-10-18T08:11:23;101846.78;;;22.37;56.22
48872;BME280;36154;51.674;7.824;2022-10-18T08:13:49;101843.28;;;22.38;56.12
48872;BME280;36154;51.674;7.824;2022-10-18T08:16:21;101849.38;;;22.37;56.28
48872;BME280;36154;51.674;7.824;2022-10-18T08:18:46;101854.56;;;22.37;56.30
48872;BME280;36154;51.674;7.824;2022-10-18T08:21:13;101855.41;;;22.39;56.37
48872;BME280;36154;51.674;7.824;2022-10-18T08:23:39;101862.31;;;22.39;56.61
48872;BME280;36154;51.674;7.824;2022-10-18T08:26:13;101863.19;;;22.39;56.72
48872;BME280;36154;51.674;7.824;2022-10-18T08:28:39;101858.00;;;22.39;56.75
48872;BME280;36154;51.674;7.824;2022-10-18T08:31:06;101860.59;;;22.39;57.01
48872;BME280;36154;51.674;7.824;2022-10-18T08:33:32;101874.41;;;22.40;56.96
48872;BME280;36154;51.674;7.824;2022-10-18T08:36:00;101875.25;;;22.40;56.98
48872;BME280;36154;51.674;7.824;2022-10-18T08:38:28;101868.34;;;22.39;57.07
48872;BME280;36154;51.674;7.824;2022-10-18T08:40:54;101880.44;;;22.40;56.87
48872;BME280;36154;51.674;7.824;2022-10-18T08:43:32;101872.66;;;22.40;57.28
48872;BME280;36154;51.674;7.824;2022-10-18T08:46:01;101880.44;;;22.40;57.26
48872;BME280;36154;51.674;7.824;2022-10-18T08:48:34;101877.84;;;22.40;57.25
48872;BME280;36154;51.674;7.824;2022-10-18T08:51:03;101880.44;;;22.40;57.20
48872;BME280;36154;51.674;7.824;2022-10-18T08:53:34;101886.50;;;22.41;57.23
48872;BME280;36154;51.674;7.824;2022-10-18T08:56:06;101895.97;;;22.40;57.19
48872;BME280;36154;51.674;7.824;2022-10-18T08:58:40;101889.09;;;22.41;57.14
48872;BME280;36154;51.674;7.824;2022-10-18T09:01:12;101891.69;;;22.41;57.19
48872;BME280;36154;51.674;7.824;2022-10-18T09:06:36;101892.53;;;22.41;57.34
48872;BME280;36154;51.674;7.824;2022-10-18T09:14:42;101897.72;;;22.41;57.70
48872;BME280;36154;51.674;7.824;2022-10-18T09:20:18;101901.16;;;22.40;57.73
48872;BME280;36154;51.674;7.824;2022-10-18T09:25:35;101898.56;;;22.40;58.02
48872;BME280;36154;51.674;7.824;2022-10-18T09:36:21;101898.53;;;22.44;58.14
48872;BME280;36154;51.674;7.824;2022-10-18T09:38:50;101907.19;;;22.44;58.03
48872;BME280;36154;51.674;7.824;2022-10-18T09:41:33;101912.38;;;22.44;58.02
48872;BME280;36154;51.674;7.824;2022-10-18T09:46:54;101917.56;;;22.44;58.02
48872;BME280;36154;51.674;7.824;2022-10-18T09:49:23;101913.22;;;22.45;58.09
48872;BME280;36154;51.674;7.824;2022-10-18T09:51:52;101908.91;;;22.44;57.90
48872;BME280;36154;51.674;7.824;2022-10-18T09:57:09;101912.31;;;22.47;58.03
48872;BME280;36154;51.674;7.824;2022-10-18T09:59:49;101909.72;;;22.49;58.00
48872;BME280;36154;51.674;7.824;2022-10-18T10:02:21;101905.41;;;22.49;57.97
48872;BME280;36154;51.674;7.824;2022-10-18T10:04:51;101908.84;;;22.50;58.17
48872;BME280;36154;51.674;7.824;2022-10-18T10:09:49;101918.34;;;22.51;58.21
48872;BME280;36154;51.674;7.824;2022-10-18T10:12:36;101914.88;;;22.52;58.15
48872;BME280;36154;51.674;7.824;2022-10-18T10:15:08;101915.75;;;22.52;57.90
48872;BME280;36154;51.674;7.824;2022-10-18T10:17:34;101914.88;;;22.52;57.98
48872;BME280;36154;51.674;7.824;2022-10-18T10:20:03;101911.41;;;22.53;57.98
48872;BME280;36154;51.674;7.824;2022-10-18T10:22:37;101915.69;;;22.54;58.11
48872;BME280;36154;51.674;7.824;2022-10-18T10:25:02;101916.59;;;22.53;57.80
48872;BME280;36154;51.674;7.824;2022-10-18T10:30:03;101926.13;;;22.51;58.11
48872;BME280;36154;51.674;7.824;2022-10-18T10:32:31;101914.03;;;22.51;58.12
48872;BME280;36154;51.674;7.824;2022-10-18T10:37:50;101918.34;;;22.51;58.08
48872;BME280;36154;51.674;7.824;2022-10-18T10:40:20;101927.84;;;22.52;58.11
48872;BME280;36154;51.674;7.824;2022-10-18T10:43:01;101926.13;;;22.51;57.92
48872;BME280;36154;51.674;7.824;2022-10-18T10:45:30;101928.72;;;22.51;58.00
48872;BME280;36154;51.674;7.824;2022-10-18T10:48:03;101931.34;;;22.49;58.12
48872;BME280;36154;51.674;7.824;2022-10-18T10:50:29;101934.78;;;22.50;57.94
48872;BME280;36154;51.674;7.824;2022-10-18T10:52:55;101927.00;;;22.50;58.22
48872;BME280;36154;51.674;7.824;2022-10-18T10:55:25;101923.56;;;22.49;58.08
48872;BME280;36154;51.674;7.824;2022-10-18T10:57:55;101932.19;;;22.50;57.85
48872;BME280;36154;51.674;7.824;2022-10-18T11:03:19;101939.09;;;22.51;58.03
48872;BME280;36154;51.674;7.824;2022-10-18T11:05:53;101942.56;;;22.50;57.93
48872;BME280;36154;51.674;7.824;2022-10-18T11:08:24;101933.06;;;22.49;57.85
48872;BME280;36154;51.674;7.824;2022-10-18T11:11:07;101939.13;;;22.48;57.93
48872;BME280;36154;51.674;7.824;2022-10-18T11:13:55;101940.84;;;22.49;57.84
48872;BME280;36154;51.674;7.824;2022-10-18T11:16:34;101937.38;;;22.48;58.07
48872;BME280;36154;51.674;7.824;2022-10-18T11:19:10;101935.66;;;22.49;57.90
48872;BME280;36154;51.674;7.824;2022-10-18T11:21:37;101930.47;;;22.49;58.06
48872;BME280;36154;51.674;7.824;2022-10-18T11:24:02;101939.13;;;22.48;58.02
48872;BME280;36154;51.674;7.824;2022-10-18T11:31:53;101930.47;;;22.49;57.93
48872;BME280;36154;51.674;7.824;2022-10-18T11:45:37;101935.56;;;22.58;58.05
48872;BME280;36154;51.674;7.824;2022-10-18T11:54:33;101923.44;;;22.58;58.20
48872;BME280;36154;51.674;7.824;2022-10-18T12:00:18;101925.16;;;22.59;58.38
48872;BME280;36154;51.674;7.824;2022-10-18T12:05:48;101914.75;;;22.61;58.11
48872;BME280;36154;51.674;7.824;2022-10-18T12:08:18;101913.00;;;22.63;58.05
48872;BME280;36154;51.674;7.824;2022-10-18T12:10:51;101900.88;;;22.65;58.15
48872;BME280;36154;51.674;7.824;2022-10-18T12:13:38;101906.88;;;22.67;57.93
48872;BME280;36154;51.674;7.824;2022-10-18T12:16:06;101906.81;;;22.72;57.82
48872;BME280;36154;51.674;7.824;2022-10-18T12:18:32;101908.53;;;22.76;57.88
48872;BME280;36154;51.674;7.824;2022-10-18T12:21:01;101905.00;;;22.78;57.75
48872;BME280;36154;51.674;7.824;2022-10-18T12:23:41;101895.47;;;22.81;57.69
48872;BME280;36154;51.674;7.824;2022-10-18T12:26:09;101905.84;;;22.81;57.67
48872;BME280;36154;51.674;7.824;2022-10-18T12:28:56;101910.16;;;22.82;57.65
48872;BME280;36154;51.674;7.824;2022-10-18T12:31:29;101907.56;;;22.82;57.52
48872;BME280;36154;51.674;7.824;2022-10-18T12:34:22;101909.34;;;22.79;57.45
48872;BME280;36154;51.674;7.824;2022-10-18T12:39:23;101914.41;;;22.86;57.32
48872;BME280;36154;51.674;7.824;2022-10-18T12:41:53;101904.00;;;22.89;57.53
48872;BME280;36154;51.674;7.824;2022-10-18T12:44:20;101904.78;;;22.94;57.13
48872;BME280;36154;51.674;7.824;2022-10-18T12:46:54;101902.16;;;22.97;57.23
48872;BME280;36154;51.674;7.824;2022-10-18T12:49:28;101900.38;;;22.99;57.07
48872;BME280;36154;51.674;7.824;2022-10-18T12:52:03;101905.53;;;23.02;56.91
48872;BME280;36154;51.674;7.824;2022-10-18T12:54:35;101902.06;;;23.06;57.13
48872;BME280;36154;51.674;7.824;2022-10-18T12:57:02;101904.56;;;23.11;56.59
48872;BME280;36154;51.674;7.824;2022-10-18T13:09:29;101901.88;;;23.19;56.44
48872;BME280;36154;51.674;7.824;2022-10-18T13:14:59;101900.00;;;23.27;56.27
48872;BME280;36154;51.674;7.824;2022-10-18T13:20:19;101892.06;;;23.36;56.30
48872;BME280;36154;51.674;7.824;2022-10-18T13:22:53;101898.94;;;23.39;56.22
48872;BME280;36154;51.674;7.824;2022-10-18T13:25:33;101907.59;;;23.39;56.39
48872;BME280;36154;51.674;7.824;2022-10-18T13:28:12;101901.56;;;23.37;56.16
48872;BME280;36154;51.674;7.824;2022-10-18T13:31:29;101893.78;;;23.37;56.37
48872;BME280;36154;51.674;7.824;2022-10-18T13:36:56;101892.78;;;23.44;56.01
48872;BME280;36154;51.674;7.824;2022-10-18T13:39:22;101896.16;;;23.49;55.84
48872;BME280;36154;51.674;7.824;2022-10-18T13:52:17;101896.59;;;23.75;55.39
48872;BME280;36154;51.674;7.824;2022-10-18T14:08:11;101890.59;;;24.19;54.23
48872;BME280;36154;51.674;7.824;2022-10-18T14:10:45;101899.19;;;24.23;54.21
48872;BME280;36154;51.674;7.824;2022-10-18T14:13:19;101900.09;;;24.22;54.27
48872;BME280;36154;51.674;7.824;2022-10-18T14:15:48;101900.97;;;24.21;54.18
48872;BME280;36154;51.674;7.824;2022-10-18T14:18:24;101905.31;;;24.20;54.46
48872;BME280;36154;51.674;7.824;2022-10-18T14:21:02;101903.59;;;24.19;54.32
48872;BME280;36154;51.674;7.824;2022-10-18T14:23:34;101906.16;;;24.21;54.50
48872;BME280;36154;51.674;7.824;2022-10-18T14:26:18;101905.31;;;24.20;54.86
48872;BME280;36154;51.674;7.824;2022-10-18T14:28:44;101910.50;;;24.20;54.83
48872;BME280;36154;51.674;7.824;2022-10-18T14:31:25;101907.09;;;24.18;55.31
48872;BME280;36154;51.674;7.824;2022-10-18T14:33:52;101915.72;;;24.20;55.42
48872;BME280;36154;51.674;7.824;2022-10-18T14:38:58;101913.94;;;24.22;55.27
48872;BME280;36154;51.674;7.824;2022-10-18T14:41:29;101913.06;;;24.23;55.49
48872;BME280;36154;51.674;7.824;2022-10-18T14:47:21;101915.66;;;24.23;55.64
48872;BME280;36154;51.674;7.824;2022-10-18T14:49:27;101924.34;;;24.22;55.62
48872;BME280;36154;51.674;7.824;2022-10-18T14:51:57;101909.56;;;24.23;55.56
48872;BME280;36154;51.674;7.824;2022-10-18T14:54:35;101921.72;;;24.24;55.85
48872;BME280;36154;51.674;7.824;2022-10-18T14:57:02;101926.81;;;24.29;55.37
48872;BME280;36154;51.674;7.824;2022-10-18T14:59:31;101919.81;;;24.32;54.65
48872;BME280;36154;51.674;7.824;2022-10-18T15:02:15;101918.88;;;24.35;53.67
48872;BME280;36154;51.674;7.824;2022-10-18T15:04:45;101915.41;;;24.36;53.01
48872;BME280;36154;51.674;7.824;2022-10-18T15:07:16;101922.25;;;24.40;52.71
48872;BME280;36154;51.674;7.824;2022-10-18T15:09:42;101927.41;;;24.41;52.58
48872;BME280;36154;51.674;7.824;2022-10-18T15:12:13;101920.53;;;24.40;51.06
48872;BME280;36154;51.674;7.824;2022-10-18T15:14:40;101925.75;;;24.39;50.13
48872;BME280;36154;51.674;7.824;2022-10-18T15:17:28;101918.88;;;24.35;48.04
48872;BME280;36154;51.674;7.824;2022-10-18T15:22:24;101925.19;;;24.23;46.01
48872;BME280;36154;51.674;7.824;2022-10-18T15:27:31;101926.28;;;24.11;49.44
48872;BME280;36154;51.674;7.824;2022-10-18T15:30:06;101922.06;;;24.05;50.01
48872;BME280;36154;51.674;7.824;2022-10-18T15:32:32;101929.16;;;23.97;50.50
48872;BME280;36154;51.674;7.824;2022-10-18T15:35:16;101930.09;;;23.93;50.94
48872;BME280;36154;51.674;7.824;2022-10-18T15:37:45;101920.63;;;23.89;51.14
48872;BME280;36154;51.674;7.824;2022-10-18T15:40:28;101932.00;;;23.83;51.24
48872;BME280;36154;51.674;7.824;2022-10-18T15:42:57;101934.66;;;23.79;51.38